sensor_id;sensor_type;location;lat;lon;timestamp;temperature;humidity
7325;DHT22;3703;48.016;7.802;2023-05-02T00:01:34;15.40;99.90
7325;DHT22;3703;48.016;7.802;2023-05-02T00:04:22;15.50;99.90
7325;DHT22;3703;48.016;7.802;2023-05-02T00:07:10;15.50;99.90
7325;DHT22;3703;48.016;7.802;2023-05-02T00:09:57;15.40;99.90
7325;DHT22;3703;48.016;7.802;2023-05-02T00:12:45;15.10;99.90
7325;DHT22;3703;48.016;7.802;2023-05-02T00:15:32;15.20;99.90
7325;DHT22;3703;48.016;7.802;2023-05-02T00:18:21;15.20;99.90
7325;DHT22;3703;48.016;7.802;2023-05-02T00:21:09;15.50;99.90
7325;DHT22;3703;48.016;7.802;2023-05-02T00:23:56;15.10;99.90
7325;DHT22;3703;48.016;7.802;2023-05-02T00:26:44;15.00;99.90
7325;DHT22;3703;48.016;7.802;2023-05-02T00:29:32;15.20;99.90
7325;DHT22;3703;48.016;7.802;2023-05-02T00:32:20;15.30;99.90
7325;DHT22;3703;48.016;7.802;2023-05-02T00:35:09;15.30;99.90
7325;DHT22;3703;48.016;7.802;2023-05-02T00:37:58;15.40;99.90
7325;DHT22;3703;48.016;7.802;2023-05-02T00:40:46;15.40;99.90
7325;DHT22;3703;48.016;7.802;2023-05-02T00:43:36;15.50;99.90
7325;DHT22;3703;48.016;7.802;2023-05-02T00:46:24;15.60;99.90
7325;DHT22;3703;48.016;7.802;2023-05-02T00:49:12;15.50;99.90
7325;DHT22;3703;48.016;7.802;2023-05-02T00:52:01;15.50;99.90
7325;DHT22;3703;48.016;7.802;2023-05-02T00:54:48;15.50;99.90
7325;DHT22;3703;48.016;7.802;2023-05-02T00:57:36;15.30;99.90
7325;DHT22;3703;48.016;7.802;2023-05-02T01:00:29;15.30;99.90
7325;DHT22;3703;48.016;7.802;2023-05-02T01:03:30;15.40;99.90
7325;DHT22;3703;48.016;7.802;2023-05-02T01:06:30;15.40;99.90
7325;DHT22;3703;48.016;7.802;2023-05-02T01:09:44;15.20;99.90
7325;DHT22;3703;48.016;7.802;2023-05-02T01:12:42;15.40;99.90
7325;DHT22;3703;48.016;7.802;2023-05-02T01:15:32;15.50;99.90
7325;DHT22;3703;48.016;7.802;2023-05-02T01:18:22;15.50;99.90
7325;DHT22;3703;48.016;7.802;2023-05-02T01:21:11;15.50;99.90
7325;DHT22;3703;48.016;7.802;2023-05-02T01:24:04;15.50;99.90
7325;DHT22;3703;48.016;7.802;2023-05-02T01:27:00;15.50;99.90
7325;DHT22;3703;48.016;7.802;2023-05-02T01:29:57;15.50;99.90
7325;DHT22;3703;48.016;7.802;2023-05-02T01:32:46;15.50;99.90
7325;DHT22;3703;48.016;7.802;2023-05-02T01:35:36;15.50;99.90
7325;DHT22;3703;48.016;7.802;2023-05-02T01:38:25;15.40;99.90
7325;DHT22;3703;48.016;7.802;2023-05-02T01:41:13;15.30;99.90
7325;DHT22;3703;48.016;7.802;2023-05-02T01:44:02;14.70;99.90
7325;DHT22;3703;48.016;7.802;2023-05-02T01:46:53;14.70;99.90
7325;DHT22;3703;48.016;7.802;2023-05-02T01:49:42;14.60;99.90
7325;DHT22;3703;48.016;7.802;2023-05-02T01:52:31;14.70;99.90
7325;DHT22;3703;48.016;7.802;2023-05-02T01:55:19;14.70;99.90
7325;DHT22;3703;48.016;7.802;2023-05-02T01:58:06;14.80;99.90
7325;DHT22;3703;48.016;7.802;2023-05-02T02:00:55;14.70;99.90
7325;DHT22;3703;48.016;7.802;2023-05-02T02:03:46;14.70;99.90
7325;DHT22;3703;48.016;7.802;2023-05-02T02:06:34;14.60;99.90
7325;DHT22;3703;48.016;7.802;2023-05-02T02:09:22;14.60;99.90
7325;DHT22;3703;48.016;7.802;2023-05-02T02:12:11;14.60;99.90
7325;DHT22;3703;48.016;7.802;2023-05-02T02:15:06;14.70;99.90
7325;DHT22;3703;48.016;7.802;2023-05-02T02:17:59;14.70;99.90
7325;DHT22;3703;48.016;7.802;2023-05-02T02:20:49;14.70;99.90
7325;DHT22;3703;48.016;7.802;2023-05-02T02:23:38;14.70;99.90
7325;DHT22;3703;48.016;7.802;2023-05-02T02:26:28;14.70;99.90
7325;DHT22;3703;48.016;7.802;2023-05-02T02:29:16;14.90;99.90
7325;DHT22;3703;48.016;7.802;2023-05-02T02:32:04;15.00;99.90
7325;DHT22;3703;48.016;7.802;2023-05-02T02:34:51;15.00;99.90
7325;DHT22;3703;48.016;7.802;2023-05-02T02:37:47;14.90;99.90
7325;DHT22;3703;48.016;7.802;2023-05-02T02:40:44;14.90;99.90
7325;DHT22;3703;48.016;7.802;2023-05-02T02:43:40;14.90;99.90
7325;DHT22;3703;48.016;7.802;2023-05-02T02:46:41;14.80;99.90
7325;DHT22;3703;48.016;7.802;2023-05-02T02:49:41;14.70;99.90
7325;DHT22;3703;48.016;7.802;2023-05-02T02:52:43;14.60;99.90
7325;DHT22;3703;48.016;7.802;2023-05-02T02:55:40;14.60;99.90
7325;DHT22;3703;48.016;7.802;2023-05-02T02:58:38;14.50;99.90
7325;DHT22;3703;48.016;7.802;2023-05-02T03:01:33;14.50;99.90
7325;DHT22;3703;48.016;7.802;2023-05-02T03:04:25;14.40;99.90
7325;DHT22;3703;48.016;7.802;2023-05-02T03:07:14;14.30;99.90
7325;DHT22;3703;48.016;7.802;2023-05-02T03:10:03;14.20;99.90
7325;DHT22;3703;48.016;7.802;2023-05-02T03:12:51;14.10;99.90
7325;DHT22;3703;48.016;7.802;2023-05-02T03:16:10;14.10;99.90
7325;DHT22;3703;48.016;7.802;2023-05-02T03:19:05;14.00;99.90
7325;DHT22;3703;48.016;7.802;2023-05-02T03:21:53;13.80;99.90
7325;DHT22;3703;48.016;7.802;2023-05-02T03:24:40;13.80;99.90
7325;DHT22;3703;48.016;7.802;2023-05-02T03:27:29;13.80;99.90
7325;DHT22;3703;48.016;7.802;2023-05-02T03:30:17;13.70;99.90
7325;DHT22;3703;48.016;7.802;2023-05-02T03:33:05;13.70;99.90
7325;DHT22;3703;48.016;7.802;2023-05-02T03:35:53;13.70;99.90
7325;DHT22;3703;48.016;7.802;2023-05-02T03:38:41;13.70;99.90
7325;DHT22;3703;48.016;7.802;2023-05-02T03:41:29;13.70;99.90
7325;DHT22;3703;48.016;7.802;2023-05-02T03:44:18;13.80;99.90
7325;DHT22;3703;48.016;7.802;2023-05-02T03:47:05;13.70;99.90
7325;DHT22;3703;48.016;7.802;2023-05-02T03:49:53;13.70;99.90
7325;DHT22;3703;48.016;7.802;2023-05-02T03:52:40;13.80;99.90
7325;DHT22;3703;48.016;7.802;2023-05-02T03:55:28;13.90;99.90
7325;DHT22;3703;48.016;7.802;2023-05-02T03:58:15;13.90;99.90
7325;DHT22;3703;48.016;7.802;2023-05-02T04:01:12;13.90;99.90
7325;DHT22;3703;48.016;7.802;2023-05-02T04:04:00;13.70;99.90
7325;DHT22;3703;48.016;7.802;2023-05-02T04:06:48;14.00;99.90
7325;DHT22;3703;48.016;7.802;2023-05-02T04:09:36;14.00;99.90
7325;DHT22;3703;48.016;7.802;2023-05-02T04:12:23;13.90;99.90
7325;DHT22;3703;48.016;7.802;2023-05-02T04:15:11;13.90;99.90
7325;DHT22;3703;48.016;7.802;2023-05-02T04:18:00;14.00;99.90
7325;DHT22;3703;48.016;7.802;2023-05-02T04:20:48;13.90;99.90
7325;DHT22;3703;48.016;7.802;2023-05-02T04:23:36;13.80;99.90
7325;DHT22;3703;48.016;7.802;2023-05-02T04:26:23;13.90;99.90
7325;DHT22;3703;48.016;7.802;2023-05-02T04:29:11;13.90;99.90
7325;DHT22;3703;48.016;7.802;2023-05-02T04:31:59;13.90;99.90
7325;DHT22;3703;48.016;7.802;2023-05-02T04:34:48;14.00;99.90
7325;DHT22;3703;48.016;7.802;2023-05-02T04:37:36;14.00;99.90
7325;DHT22;3703;48.016;7.802;2023-05-02T04:40:23;14.00;99.90
7325;DHT22;3703;48.016;7.802;2023-05-02T04:43:11;14.00;99.90
7325;DHT22;3703;48.016;7.802;2023-05-02T04:45:59;14.00;99.90
7325;DHT22;3703;48.016;7.802;2023-05-02T04:48:46;14.00;99.90
7325;DHT22;3703;48.016;7.802;2023-05-02T04:51:35;14.00;99.90
7325;DHT22;3703;48.016;7.802;2023-05-02T04:54:22;14.10;99.90
7325;DHT22;3703;48.016;7.802;2023-05-02T04:57:10;14.10;99.90
7325;DHT22;3703;48.016;7.802;2023-05-02T04:59:57;14.10;99.90
7325;DHT22;3703;48.016;7.802;2023-05-02T05:02:45;14.10;99.90
7325;DHT22;3703;48.016;7.802;2023-05-02T05:05:32;14.10;99.90
7325;DHT22;3703;48.016;7.802;2023-05-02T05:08:21;14.20;99.90
7325;DHT22;3703;48.016;7.802;2023-05-02T05:11:09;14.30;99.90
7325;DHT22;3703;48.016;7.802;2023-05-02T05:13:57;14.40;99.90
7325;DHT22;3703;48.016;7.802;2023-05-02T05:16:44;14.30;99.90
7325;DHT22;3703;48.016;7.802;2023-05-02T05:19:32;14.30;99.90
7325;DHT22;3703;48.016;7.802;2023-05-02T05:22:19;14.30;99.90
7325;DHT22;3703;48.016;7.802;2023-05-02T05:25:09;14.70;99.90
7325;DHT22;3703;48.016;7.802;2023-05-02T05:27:58;14.40;99.90
7325;DHT22;3703;48.016;7.802;2023-05-02T05:30:46;14.50;99.90
7325;DHT22;3703;48.016;7.802;2023-05-02T05:33:34;14.50;99.90
7325;DHT22;3703;48.016;7.802;2023-05-02T05:36:21;15.00;99.90
7325;DHT22;3703;48.016;7.802;2023-05-02T05:39:09;14.40;99.90
7325;DHT22;3703;48.016;7.802;2023-05-02T05:41:58;14.60;99.90
7325;DHT22;3703;48.016;7.802;2023-05-02T05:44:45;14.50;99.90
7325;DHT22;3703;48.016;7.802;2023-05-02T05:47:33;14.60;99.90
7325;DHT22;3703;48.016;7.802;2023-05-02T05:50:20;14.60;99.90
7325;DHT22;3703;48.016;7.802;2023-05-02T05:53:08;14.80;99.90
7325;DHT22;3703;48.016;7.802;2023-05-02T05:55:55;14.80;99.90
7325;DHT22;3703;48.016;7.802;2023-05-02T05:58:45;14.80;99.90
7325;DHT22;3703;48.016;7.802;2023-05-02T06:01:32;14.70;99.90
7325;DHT22;3703;48.016;7.802;2023-05-02T06:04:20;14.90;99.90
7325;DHT22;3703;48.016;7.802;2023-05-02T06:07:08;14.80;99.90
7325;DHT22;3703;48.016;7.802;2023-05-02T06:09:56;15.00;99.90
7325;DHT22;3703;48.016;7.802;2023-05-02T06:12:43;14.90;99.90
7325;DHT22;3703;48.016;7.802;2023-05-02T06:15:33;15.10;99.90
7325;DHT22;3703;48.016;7.802;2023-05-02T06:18:21;15.10;99.90
7325;DHT22;3703;48.016;7.802;2023-05-02T06:21:08;15.20;99.90
7325;DHT22;3703;48.016;7.802;2023-05-02T06:23:56;16.70;99.90
7325;DHT22;3703;48.016;7.802;2023-05-02T06:26:44;15.70;99.90
7325;DHT22;3703;48.016;7.802;2023-05-02T06:29:31;16.00;99.90
7325;DHT22;3703;48.016;7.802;2023-05-02T06:32:20;16.50;99.90
7325;DHT22;3703;48.016;7.802;2023-05-02T06:35:08;16.90;99.90
7325;DHT22;3703;48.016;7.802;2023-05-02T06:37:56;17.10;99.90
7325;DHT22;3703;48.016;7.802;2023-05-02T06:40:43;17.60;99.90
7325;DHT22;3703;48.016;7.802;2023-05-02T06:43:31;18.00;99.90
7325;DHT22;3703;48.016;7.802;2023-05-02T06:46:18;18.40;99.90
7325;DHT22;3703;48.016;7.802;2023-05-02T06:49:07;18.60;99.90
7325;DHT22;3703;48.016;7.802;2023-05-02T06:51:55;18.20;99.90
7325;DHT22;3703;48.016;7.802;2023-05-02T06:54:42;18.20;99.90
7325;DHT22;3703;48.016;7.802;2023-05-02T06:57:30;18.30;99.90
7325;DHT22;3703;48.016;7.802;2023-05-02T07:00:18;18.50;99.90
7325;DHT22;3703;48.016;7.802;2023-05-02T07:03:06;18.60;99.90
7325;DHT22;3703;48.016;7.802;2023-05-02T07:05:57;18.50;99.90
7325;DHT22;3703;48.016;7.802;2023-05-02T07:08:44;18.40;99.90
7325;DHT22;3703;48.016;7.802;2023-05-02T07:11:32;18.20;99.90
7325;DHT22;3703;48.016;7.802;2023-05-02T07:14:19;17.90;99.90
7325;DHT22;3703;48.016;7.802;2023-05-02T07:17:07;17.90;99.90
7325;DHT22;3703;48.016;7.802;2023-05-02T07:19:55;18.00;99.90
7325;DHT22;3703;48.016;7.802;2023-05-02T07:22:44;17.90;99.90
7325;DHT22;3703;48.016;7.802;2023-05-02T07:25:31;18.00;99.90
7325;DHT22;3703;48.016;7.802;2023-05-02T07:28:19;18.00;99.90
7325;DHT22;3703;48.016;7.802;2023-05-02T07:31:06;17.80;99.90
7325;DHT22;3703;48.016;7.802;2023-05-02T07:33:54;18.00;99.90
7325;DHT22;3703;48.016;7.802;2023-05-02T07:36:41;18.20;99.90
7325;DHT22;3703;48.016;7.802;2023-05-02T07:39:32;17.90;99.90
7325;DHT22;3703;48.016;7.802;2023-05-02T07:42:19;18.00;99.90
7325;DHT22;3703;48.016;7.802;2023-05-02T07:45:08;18.00;99.90
7325;DHT22;3703;48.016;7.802;2023-05-02T07:47:56;18.80;99.90
7325;DHT22;3703;48.016;7.802;2023-05-02T07:50:43;18.30;99.90
7325;DHT22;3703;48.016;7.802;2023-05-02T07:53:31;18.40;99.90
7325;DHT22;3703;48.016;7.802;2023-05-02T07:56:20;18.40;99.90
7325;DHT22;3703;48.016;7.802;2023-05-02T07:59:08;18.40;99.90
7325;DHT22;3703;48.016;7.802;2023-05-02T08:01:56;18.40;99.90
7325;DHT22;3703;48.016;7.802;2023-05-02T08:04:43;18.50;99.90
7325;DHT22;3703;48.016;7.802;2023-05-02T08:07:31;18.50;99.90
7325;DHT22;3703;48.016;7.802;2023-05-02T08:10:20;18.50;99.90
7325;DHT22;3703;48.016;7.802;2023-05-02T08:13:10;18.70;99.90
7325;DHT22;3703;48.016;7.802;2023-05-02T08:15:58;18.70;99.90
7325;DHT22;3703;48.016;7.802;2023-05-02T08:18:46;18.70;99.90
7325;DHT22;3703;48.016;7.802;2023-05-02T08:21:34;18.80;99.90
7325;DHT22;3703;48.016;7.802;2023-05-02T08:24:22;18.80;99.90
7325;DHT22;3703;48.016;7.802;2023-05-02T08:27:09;19.10;99.90
7325;DHT22;3703;48.016;7.802;2023-05-02T08:29:58;19.10;99.90
7325;DHT22;3703;48.016;7.802;2023-05-02T08:32:45;19.20;99.90
7325;DHT22;3703;48.016;7.802;2023-05-02T08:35:33;19.80;99.90
7325;DHT22;3703;48.016;7.802;2023-05-02T08:38:21;19.10;99.90
7325;DHT22;3703;48.016;7.802;2023-05-02T08:41:12;19.10;99.90
7325;DHT22;3703;48.016;7.802;2023-05-02T08:44:02;19.10;99.90
7325;DHT22;3703;48.016;7.802;2023-05-02T08:46:52;19.10;99.90
7325;DHT22;3703;48.016;7.802;2023-05-02T08:49:41;19.00;99.90
7325;DHT22;3703;48.016;7.802;2023-05-02T08:52:31;19.00;99.90
7325;DHT22;3703;48.016;7.802;2023-05-02T08:55:19;19.60;99.90
7325;DHT22;3703;48.016;7.802;2023-05-02T08:58:12;19.40;99.90
7325;DHT22;3703;48.016;7.802;2023-05-02T09:01:03;19.60;99.90
7325;DHT22;3703;48.016;7.802;2023-05-02T09:03:57;19.80;99.90
7325;DHT22;3703;48.016;7.802;2023-05-02T09:06:44;20.00;99.90
7325;DHT22;3703;48.016;7.802;2023-05-02T09:09:33;19.90;99.90
7325;DHT22;3703;48.016;7.802;2023-05-02T09:12:24;19.90;99.90
7325;DHT22;3703;48.016;7.802;2023-05-02T09:15:14;20.10;99.90
7325;DHT22;3703;48.016;7.802;2023-05-02T09:18:02;20.10;99.90
7325;DHT22;3703;48.016;7.802;2023-05-02T09:20:51;20.20;99.90
7325;DHT22;3703;48.016;7.802;2023-05-02T09:23:40;19.90;99.90
7325;DHT22;3703;48.016;7.802;2023-05-02T09:26:30;19.90;99.90
7325;DHT22;3703;48.016;7.802;2023-05-02T09:29:19;19.90;99.90
7325;DHT22;3703;48.016;7.802;2023-05-02T09:32:06;20.00;99.90
7325;DHT22;3703;48.016;7.802;2023-05-02T09:35:04;20.30;99.90
7325;DHT22;3703;48.016;7.802;2023-05-02T09:37:54;20.50;99.90
7325;DHT22;3703;48.016;7.802;2023-05-02T09:40:52;20.60;99.90
7325;DHT22;3703;48.016;7.802;2023-05-02T09:43:41;20.70;99.90
7325;DHT22;3703;48.016;7.802;2023-05-02T09:46:38;20.60;99.90
7325;DHT22;3703;48.016;7.802;2023-05-02T09:49:42;20.90;99.90
7325;DHT22;3703;48.016;7.802;2023-05-02T09:52:30;21.10;99.90
7325;DHT22;3703;48.016;7.802;2023-05-02T09:55:22;21.20;99.90
7325;DHT22;3703;48.016;7.802;2023-05-02T09:58:19;21.10;99.90
7325;DHT22;3703;48.016;7.802;2023-05-02T10:01:13;20.90;99.90
7325;DHT22;3703;48.016;7.802;2023-05-02T10:04:03;21.20;99.90
7325;DHT22;3703;48.016;7.802;2023-05-02T10:06:52;21.50;99.90
7325;DHT22;3703;48.016;7.802;2023-05-02T10:09:42;21.70;99.90
7325;DHT22;3703;48.016;7.802;2023-05-02T10:12:32;21.80;99.90
7325;DHT22;3703;48.016;7.802;2023-05-02T10:15:22;21.70;99.90
7325;DHT22;3703;48.016;7.802;2023-05-02T10:18:12;21.70;99.90
7325;DHT22;3703;48.016;7.802;2023-05-02T10:21:07;21.80;99.90
7325;DHT22;3703;48.016;7.802;2023-05-02T10:23:55;21.30;99.90
7325;DHT22;3703;48.016;7.802;2023-05-02T10:26:44;21.50;99.90
7325;DHT22;3703;48.016;7.802;2023-05-02T10:29:33;21.10;99.90
7325;DHT22;3703;48.016;7.802;2023-05-02T10:32:21;21.50;99.90
7325;DHT22;3703;48.016;7.802;2023-05-02T10:35:11;21.70;99.90
7325;DHT22;3703;48.016;7.802;2023-05-02T10:38:00;22.00;99.90
7325;DHT22;3703;48.016;7.802;2023-05-02T10:40:54;22.00;99.90
7325;DHT22;3703;48.016;7.802;2023-05-02T10:43:46;22.00;99.90
7325;DHT22;3703;48.016;7.802;2023-05-02T10:46:37;22.10;99.90
7325;DHT22;3703;48.016;7.802;2023-05-02T10:49:27;22.40;99.90
7325;DHT22;3703;48.016;7.802;2023-05-02T10:52:29;22.50;99.90
7325;DHT22;3703;48.016;7.802;2023-05-02T10:55:20;22.80;99.90
7325;DHT22;3703;48.016;7.802;2023-05-02T10:58:20;22.90;99.90
7325;DHT22;3703;48.016;7.802;2023-05-02T11:01:38;22.50;99.90
7325;DHT22;3703;48.016;7.802;2023-05-02T11:05:00;22.90;99.90
7325;DHT22;3703;48.016;7.802;2023-05-02T11:07:49;23.10;99.90
7325;DHT22;3703;48.016;7.802;2023-05-02T11:10:36;23.20;99.90
7325;DHT22;3703;48.016;7.802;2023-05-02T11:13:48;23.10;99.90
7325;DHT22;3703;48.016;7.802;2023-05-02T11:17:10;23.00;99.90
7325;DHT22;3703;48.016;7.802;2023-05-02T11:20:25;22.70;99.90
7325;DHT22;3703;48.016;7.802;2023-05-02T11:23:21;22.40;99.90
7325;DHT22;3703;48.016;7.802;2023-05-02T11:26:20;22.30;99.90
7325;DHT22;3703;48.016;7.802;2023-05-02T11:29:08;22.40;99.90
7325;DHT22;3703;48.016;7.802;2023-05-02T11:31:56;22.30;99.90
7325;DHT22;3703;48.016;7.802;2023-05-02T11:34:45;22.20;99.90
7325;DHT22;3703;48.016;7.802;2023-05-02T11:37:33;22.10;99.90
7325;DHT22;3703;48.016;7.802;2023-05-02T11:40:21;22.00;99.90
7325;DHT22;3703;48.016;7.802;2023-05-02T11:43:14;22.10;99.90
7325;DHT22;3703;48.016;7.802;2023-05-02T11:46:05;22.20;99.90
7325;DHT22;3703;48.016;7.802;2023-05-02T11:48:52;22.70;99.90
7325;DHT22;3703;48.016;7.802;2023-05-02T11:51:41;22.80;99.90
7325;DHT22;3703;48.016;7.802;2023-05-02T11:54:29;22.80;99.90
7325;DHT22;3703;48.016;7.802;2023-05-02T11:57:17;22.90;99.90
7325;DHT22;3703;48.016;7.802;2023-05-02T12:00:06;22.90;99.90
7325;DHT22;3703;48.016;7.802;2023-05-02T12:02:56;23.00;99.90
7325;DHT22;3703;48.016;7.802;2023-05-02T12:05:43;23.20;99.90
7325;DHT22;3703;48.016;7.802;2023-05-02T12:08:32;23.60;99.90
7325;DHT22;3703;48.016;7.802;2023-05-02T12:11:20;23.50;99.90
7325;DHT22;3703;48.016;7.802;2023-05-02T12:14:08;23.80;99.90
7325;DHT22;3703;48.016;7.802;2023-05-02T12:16:57;24.50;99.90
7325;DHT22;3703;48.016;7.802;2023-05-02T12:19:45;25.00;99.90
7325;DHT22;3703;48.016;7.802;2023-05-02T12:22:33;24.50;99.90
7325;DHT22;3703;48.016;7.802;2023-05-02T12:25:23;24.40;99.90
7325;DHT22;3703;48.016;7.802;2023-05-02T12:28:10;24.20;99.90
7325;DHT22;3703;48.016;7.802;2023-05-02T12:30:58;24.70;99.90
7325;DHT22;3703;48.016;7.802;2023-05-02T12:33:57;25.10;99.90
7325;DHT22;3703;48.016;7.802;2023-05-02T12:36:46;25.00;99.90
7325;DHT22;3703;48.016;7.802;2023-05-02T12:39:34;24.40;99.90
7325;DHT22;3703;48.016;7.802;2023-05-02T12:42:24;24.80;99.90
7325;DHT22;3703;48.016;7.802;2023-05-02T12:45:16;25.00;99.90
7325;DHT22;3703;48.016;7.802;2023-05-02T12:48:18;25.10;99.90
7325;DHT22;3703;48.016;7.802;2023-05-02T12:51:20;25.10;99.00
7325;DHT22;3703;48.016;7.802;2023-05-02T12:54:19;24.90;99.60
7325;DHT22;3703;48.016;7.802;2023-05-02T12:57:07;24.90;98.50
7325;DHT22;3703;48.016;7.802;2023-05-02T12:59:56;25.30;98.60
7325;DHT22;3703;48.016;7.802;2023-05-02T13:02:43;25.70;99.20
7325;DHT22;3703;48.016;7.802;2023-05-02T13:05:31;25.90;96.50
7325;DHT22;3703;48.016;7.802;2023-05-02T13:08:19;25.70;97.10
7325;DHT22;3703;48.016;7.802;2023-05-02T13:11:06;26.10;94.90
7325;DHT22;3703;48.016;7.802;2023-05-02T13:13:54;26.20;95.60
7325;DHT22;3703;48.016;7.802;2023-05-02T13:16:43;26.60;94.10
7325;DHT22;3703;48.016;7.802;2023-05-02T13:19:30;26.40;93.20
7325;DHT22;3703;48.016;7.802;2023-05-02T13:22:17;25.90;93.20
7325;DHT22;3703;48.016;7.802;2023-05-02T13:25:06;25.90;93.50
7325;DHT22;3703;48.016;7.802;2023-05-02T13:27:55;25.60;91.20
7325;DHT22;3703;48.016;7.802;2023-05-02T13:30:43;26.00;92.30
7325;DHT22;3703;48.016;7.802;2023-05-02T13:33:31;26.20;91.70
7325;DHT22;3703;48.016;7.802;2023-05-02T13:36:19;26.40;89.70
7325;DHT22;3703;48.016;7.802;2023-05-02T13:39:06;26.60;88.80
7325;DHT22;3703;48.016;7.802;2023-05-02T13:41:54;26.70;90.40
7325;DHT22;3703;48.016;7.802;2023-05-02T13:44:42;26.70;90.30
7325;DHT22;3703;48.016;7.802;2023-05-02T13:47:29;26.40;85.70
7325;DHT22;3703;48.016;7.802;2023-05-02T13:50:18;26.20;84.00
7325;DHT22;3703;48.016;7.802;2023-05-02T13:53:06;26.00;81.90
7325;DHT22;3703;48.016;7.802;2023-05-02T13:55:53;25.80;83.50
7325;DHT22;3703;48.016;7.802;2023-05-02T13:58:40;25.70;86.20
7325;DHT22;3703;48.016;7.802;2023-05-02T14:01:28;25.90;89.70
7325;DHT22;3703;48.016;7.802;2023-05-02T14:04:16;26.20;88.40
7325;DHT22;3703;48.016;7.802;2023-05-02T14:07:05;26.40;87.70
7325;DHT22;3703;48.016;7.802;2023-05-02T14:09:52;26.10;85.50
7325;DHT22;3703;48.016;7.802;2023-05-02T14:12:40;25.80;82.50
7325;DHT22;3703;48.016;7.802;2023-05-02T14:15:27;25.60;85.50
7325;DHT22;3703;48.016;7.802;2023-05-02T14:18:15;25.90;86.00
7325;DHT22;3703;48.016;7.802;2023-05-02T14:21:03;26.20;86.10
7325;DHT22;3703;48.016;7.802;2023-05-02T14:23:52;26.00;79.50
7325;DHT22;3703;48.016;7.802;2023-05-02T14:26:39;25.90;82.70
7325;DHT22;3703;48.016;7.802;2023-05-02T14:29:27;25.80;81.40
7325;DHT22;3703;48.016;7.802;2023-05-02T14:32:15;25.90;86.10
7325;DHT22;3703;48.016;7.802;2023-05-02T14:35:02;25.90;86.80
7325;DHT22;3703;48.016;7.802;2023-05-02T14:37:50;25.40;84.40
7325;DHT22;3703;48.016;7.802;2023-05-02T14:40:39;25.10;86.50
7325;DHT22;3703;48.016;7.802;2023-05-02T14:43:27;24.40;90.30
7325;DHT22;3703;48.016;7.802;2023-05-02T14:46:14;24.20;90.20
7325;DHT22;3703;48.016;7.802;2023-05-02T14:49:02;24.40;92.00
7325;DHT22;3703;48.016;7.802;2023-05-02T14:51:49;24.40;92.50
7325;DHT22;3703;48.016;7.802;2023-05-02T14:54:37;24.40;91.90
7325;DHT22;3703;48.016;7.802;2023-05-02T14:57:26;24.20;91.30
7325;DHT22;3703;48.016;7.802;2023-05-02T15:00:14;23.80;91.80
7325;DHT22;3703;48.016;7.802;2023-05-02T15:03:03;23.60;93.60
7325;DHT22;3703;48.016;7.802;2023-05-02T15:05:51;23.60;94.60
7325;DHT22;3703;48.016;7.802;2023-05-02T15:08:38;23.40;95.60
7325;DHT22;3703;48.016;7.802;2023-05-02T15:11:26;23.00;96.40
7325;DHT22;3703;48.016;7.802;2023-05-02T15:14:15;22.90;97.30
7325;DHT22;3703;48.016;7.802;2023-05-02T15:17:03;22.80;97.50
7325;DHT22;3703;48.016;7.802;2023-05-02T15:19:50;22.70;97.10
7325;DHT22;3703;48.016;7.802;2023-05-02T15:22:38;22.60;98.30
7325;DHT22;3703;48.016;7.802;2023-05-02T15:25:25;22.60;98.20
7325;DHT22;3703;48.016;7.802;2023-05-02T15:28:13;22.70;99.50
7325;DHT22;3703;48.016;7.802;2023-05-02T15:31:02;22.40;99.20
7325;DHT22;3703;48.016;7.802;2023-05-02T15:33:50;22.20;98.30
7325;DHT22;3703;48.016;7.802;2023-05-02T15:36:37;22.10;98.00
7325;DHT22;3703;48.016;7.802;2023-05-02T15:39:25;22.00;98.90
7325;DHT22;3703;48.016;7.802;2023-05-02T15:42:13;22.00;99.20
7325;DHT22;3703;48.016;7.802;2023-05-02T15:45:00;21.90;99.10
7325;DHT22;3703;48.016;7.802;2023-05-02T15:47:50;22.00;99.50
7325;DHT22;3703;48.016;7.802;2023-05-02T15:50:37;22.10;98.70
7325;DHT22;3703;48.016;7.802;2023-05-02T15:53:25;22.10;98.20
7325;DHT22;3703;48.016;7.802;2023-05-02T15:56:13;22.00;98.90
7325;DHT22;3703;48.016;7.802;2023-05-02T15:59:00;22.00;98.70
7325;DHT22;3703;48.016;7.802;2023-05-02T16:01:48;22.10;98.60
7325;DHT22;3703;48.016;7.802;2023-05-02T16:04:37;21.60;98.00
7325;DHT22;3703;48.016;7.802;2023-05-02T16:07:24;21.40;98.80
7325;DHT22;3703;48.016;7.802;2023-05-02T16:10:12;21.50;99.70
7325;DHT22;3703;48.016;7.802;2023-05-02T16:13:00;21.40;99.40
7325;DHT22;3703;48.016;7.802;2023-05-02T16:15:48;21.50;99.90
7325;DHT22;3703;48.016;7.802;2023-05-02T16:18:37;21.60;99.40
7325;DHT22;3703;48.016;7.802;2023-05-02T16:21:25;21.40;99.50
7325;DHT22;3703;48.016;7.802;2023-05-02T16:24:13;21.20;98.40
7325;DHT22;3703;48.016;7.802;2023-05-02T16:27:01;21.10;98.30
7325;DHT22;3703;48.016;7.802;2023-05-02T16:29:49;21.40;98.50
7325;DHT22;3703;48.016;7.802;2023-05-02T16:32:37;21.40;98.40
7325;DHT22;3703;48.016;7.802;2023-05-02T16:35:25;21.80;97.80
7325;DHT22;3703;48.016;7.802;2023-05-02T16:38:14;21.40;97.60
7325;DHT22;3703;48.016;7.802;2023-05-02T16:41:02;21.30;96.70
7325;DHT22;3703;48.016;7.802;2023-05-02T16:43:51;20.80;96.90
7325;DHT22;3703;48.016;7.802;2023-05-02T16:46:39;21.00;97.60
7325;DHT22;3703;48.016;7.802;2023-05-02T16:49:27;21.00;98.40
7325;DHT22;3703;48.016;7.802;2023-05-02T16:52:14;20.90;97.90
7325;DHT22;3703;48.016;7.802;2023-05-02T16:55:04;20.90;98.00
7325;DHT22;3703;48.016;7.802;2023-05-02T16:57:52;20.60;97.30
7325;DHT22;3703;48.016;7.802;2023-05-02T17:00:39;20.50;98.20
7325;DHT22;3703;48.016;7.802;2023-05-02T17:03:27;20.50;98.10
7325;DHT22;3703;48.016;7.802;2023-05-02T17:06:14;20.40;97.90
7325;DHT22;3703;48.016;7.802;2023-05-02T17:09:02;20.40;99.30
7325;DHT22;3703;48.016;7.802;2023-05-02T17:11:51;20.60;98.50
7325;DHT22;3703;48.016;7.802;2023-05-02T17:14:39;21.10;98.30
7325;DHT22;3703;48.016;7.802;2023-05-02T17:17:28;20.70;97.60
7325;DHT22;3703;48.016;7.802;2023-05-02T17:20:16;20.90;98.50
7325;DHT22;3703;48.016;7.802;2023-05-02T17:23:05;20.50;98.00
7325;DHT22;3703;48.016;7.802;2023-05-02T17:25:53;20.50;98.30
7325;DHT22;3703;48.016;7.802;2023-05-02T17:28:43;20.60;98.60
7325;DHT22;3703;48.016;7.802;2023-05-02T17:31:31;20.30;98.90
7325;DHT22;3703;48.016;7.802;2023-05-02T17:34:19;20.20;98.80
7325;DHT22;3703;48.016;7.802;2023-05-02T17:37:11;20.10;99.10
7325;DHT22;3703;48.016;7.802;2023-05-02T17:40:00;20.30;99.10
7325;DHT22;3703;48.016;7.802;2023-05-02T17:42:49;20.00;99.10
7325;DHT22;3703;48.016;7.802;2023-05-02T17:45:38;20.10;98.80
7325;DHT22;3703;48.016;7.802;2023-05-02T17:48:27;20.20;99.10
7325;DHT22;3703;48.016;7.802;2023-05-02T17:51:14;20.10;99.50
7325;DHT22;3703;48.016;7.802;2023-05-02T17:54:01;20.10;98.90
7325;DHT22;3703;48.016;7.802;2023-05-02T17:56:49;20.20;99.20
7325;DHT22;3703;48.016;7.802;2023-05-02T17:59:37;19.90;99.50
7325;DHT22;3703;48.016;7.802;2023-05-02T18:02:27;20.00;99.30
7325;DHT22;3703;48.016;7.802;2023-05-02T18:05:15;20.10;99.60
7325;DHT22;3703;48.016;7.802;2023-05-02T18:08:03;19.70;99.60
7325;DHT22;3703;48.016;7.802;2023-05-02T18:10:52;19.70;99.90
7325;DHT22;3703;48.016;7.802;2023-05-02T18:13:39;19.70;99.90
7325;DHT22;3703;48.016;7.802;2023-05-02T18:16:27;19.70;99.90
7325;DHT22;3703;48.016;7.802;2023-05-02T18:19:16;19.60;99.90
7325;DHT22;3703;48.016;7.802;2023-05-02T18:22:03;19.50;99.90
7325;DHT22;3703;48.016;7.802;2023-05-02T18:24:51;19.60;99.90
7325;DHT22;3703;48.016;7.802;2023-05-02T18:27:39;19.60;99.90